Terminal Aerodrome Forecast
Issued by NWS Midland/Odessa, TX

Home | Current Version | Previous Version | Text Only | Print | Product List | Glossary On
Versions: 1 2 3 4 5 6 7 8 9 10 11 12 13 14 15 16 17 18 19 20 21 22 23 24 25 26 27 28
000
FTUS44 KMAF 201100
TAFMAF
TAF
KMAF 201130Z 2012/2112 13006KT P6SM OVC012
      TEMPO 2012/2015 5SM -SHRA BR OVC005
     FM201500 16010KT P6SM BKN020
      TEMPO 2017/2021 4SM TSRA BR BKN030CB
     FM202100 14010KT P6SM BKN040
      TEMPO 2021/2101 5SM TSRA BR BKN030CB=

USA.gov is the U.S. government's official web portal to all federal, state and local government web resources and services.